createdAt,value
2018-05-17T00:01:49.848Z,89.50
2018-05-17T00:04:18.071Z,89.70
2018-05-17T00:06:45.530Z,89.60
2018-05-17T00:09:13.013Z,89.90
2018-05-17T00:11:40.559Z,89.90
2018-05-17T00:14:08.134Z,90.00
2018-05-17T00:16:35.615Z,90.20
2018-05-17T00:19:03.155Z,89.70
2018-05-17T00:21:31.384Z,90.30
2018-05-17T00:23:58.843Z,90.20
2018-05-17T00:26:26.329Z,90.20
2018-05-17T00:28:53.880Z,90.30
2018-05-17T00:31:21.357Z,90.30
2018-05-17T00:33:48.840Z,90.30
2018-05-17T00:36:16.336Z,90.00
2018-05-17T00:38:43.812Z,90.20
2018-05-17T00:41:11.278Z,90.20
2018-05-17T00:43:38.752Z,90.40
2018-05-17T00:46:06.978Z,90.50
2018-05-17T00:48:34.468Z,90.50
2018-05-17T00:51:03.458Z,90.60
2018-05-17T00:53:31.621Z,90.60
2018-05-17T00:55:59.191Z,90.60
2018-05-17T00:58:26.650Z,90.60
2018-05-17T01:00:54.922Z,90.70
2018-05-17T01:03:22.484Z,90.60
2018-05-17T01:05:49.956Z,90.60
2018-05-17T01:08:18.198Z,90.50
2018-05-17T01:10:45.720Z,90.50
2018-05-17T01:13:13.247Z,90.60
2018-05-17T01:15:42.191Z,90.50
2018-05-17T01:18:09.661Z,90.50
2018-05-17T01:20:37.241Z,90.50
2018-05-17T01:23:04.792Z,90.50
2018-05-17T01:25:32.356Z,90.40
2018-05-17T01:27:59.828Z,90.20
2018-05-17T01:30:28.052Z,90.10
2018-05-17T01:32:55.696Z,90.10
2018-05-17T01:35:23.207Z,90.10
2018-05-17T01:38:03.287Z,90.10
2018-05-17T01:40:30.754Z,90.10
2018-05-17T01:42:58.227Z,90.10
2018-05-17T01:45:25.691Z,90.10
2018-05-17T01:47:53.154Z,90.10
2018-05-17T01:50:20.634Z,90.10
2018-05-17T01:52:48.101Z,90.00
2018-05-17T01:55:15.586Z,90.00
2018-05-17T01:57:43.054Z,89.90
2018-05-17T02:00:10.604Z,89.90
2018-05-17T02:02:38.010Z,90.00
2018-05-17T02:05:05.482Z,90.00
2018-05-17T02:07:33.740Z,90.00
2018-05-17T02:10:01.224Z,90.00
2018-05-17T02:12:29.508Z,90.50
2018-05-17T02:14:57.746Z,90.40
2018-05-17T02:17:25.323Z,90.40
2018-05-17T02:19:52.786Z,90.60
2018-05-17T02:22:21.038Z,90.90
2018-05-17T02:24:48.620Z,90.90
2018-05-17T02:27:16.881Z,91.20
2018-05-17T02:29:45.242Z,91.30
2018-05-17T02:32:12.724Z,91.30
2018-05-17T02:34:40.207Z,91.40
2018-05-17T02:37:08.439Z,91.60
2018-05-17T02:39:36.055Z,91.60
2018-05-17T02:42:03.577Z,91.80
2018-05-17T02:44:31.070Z,91.90
2018-05-17T02:46:58.538Z,92.00
2018-05-17T02:49:26.002Z,92.20
2018-05-17T02:51:53.466Z,92.30
2018-05-17T02:54:20.942Z,92.40
2018-05-17T02:56:48.503Z,92.40
2018-05-17T02:59:16.079Z,92.40
2018-05-17T03:01:43.553Z,92.50
2018-05-17T03:04:11.796Z,92.70
2018-05-17T03:06:39.380Z,92.70
2018-05-17T03:09:07.645Z,92.70
2018-05-17T03:11:35.132Z,92.70
2018-05-17T03:14:02.665Z,92.90
2018-05-17T03:16:30.947Z,92.80
2018-05-17T03:18:59.201Z,93.10
2018-05-17T03:21:26.823Z,93.00
2018-05-17T03:23:54.320Z,93.10
2018-05-17T03:26:22.590Z,93.20
2018-05-17T03:28:50.061Z,93.20
2018-05-17T03:31:17.625Z,93.40
2018-05-17T03:33:45.899Z,93.60
2018-05-17T03:36:13.456Z,93.30
2018-05-17T03:38:40.957Z,93.40
2018-05-17T03:41:08.419Z,93.40
2018-05-17T03:43:35.932Z,93.30
2018-05-17T03:46:03.420Z,93.20
2018-05-17T03:48:30.917Z,93.20
2018-05-17T03:50:58.418Z,93.10
2018-05-17T03:53:26.684Z,92.70
2018-05-17T03:55:54.936Z,92.80
2018-05-17T03:58:22.424Z,92.70
2018-05-17T04:01:02.675Z,92.50
2018-05-17T04:03:43.001Z,92.30
2018-05-17T04:06:22.618Z,92.20
2018-05-17T04:08:50.120Z,92.20
2018-05-17T04:11:18.355Z,92.10
2018-05-17T04:13:45.809Z,92.40
2018-05-17T04:16:13.278Z,92.00
2018-05-17T04:18:40.784Z,92.00
2018-05-17T04:21:09.052Z,92.00
2018-05-17T04:23:37.314Z,91.90
2018-05-17T04:26:04.889Z,91.90
2018-05-17T04:28:33.112Z,91.80
2018-05-17T04:31:00.587Z,91.70
2018-05-17T04:33:28.053Z,91.70
2018-05-17T04:35:55.536Z,91.70
2018-05-17T04:38:23.887Z,91.50
2018-05-17T04:40:51.474Z,91.50
2018-05-17T04:43:19.736Z,91.10
2018-05-17T04:45:47.228Z,91.10
2018-05-17T04:48:14.768Z,91.10
2018-05-17T04:50:43.014Z,90.80
2018-05-17T04:53:10.501Z,91.20
2018-05-17T04:55:38.744Z,90.60
2018-05-17T04:58:06.219Z,90.60
2018-05-17T05:00:34.464Z,91.00
2018-05-17T05:03:02.055Z,90.70
2018-05-17T05:05:29.422Z,90.60
2018-05-17T05:07:57.686Z,90.20
2018-05-17T05:10:25.966Z,90.60
2018-05-17T05:12:54.207Z,90.10
2018-05-17T05:15:21.777Z,90.10
2018-05-17T05:17:49.268Z,90.00
2018-05-17T05:20:16.799Z,90.20
2018-05-17T05:22:44.350Z,90.00
2018-05-17T05:25:11.947Z,89.40
2018-05-17T05:27:39.376Z,89.90
2018-05-17T05:30:06.945Z,89.10
2018-05-17T05:32:35.178Z,90.00
2018-05-17T05:35:02.664Z,89.90
2018-05-17T05:37:30.205Z,89.30
2018-05-17T05:39:58.380Z,89.40
2018-05-17T05:42:25.849Z,89.20
2018-05-17T05:44:53.344Z,88.90
2018-05-17T05:47:20.864Z,88.80
2018-05-17T05:49:48.369Z,88.80
2018-05-17T05:52:15.883Z,87.80
2018-05-17T05:54:43.365Z,88.30
2018-05-17T05:57:11.714Z,89.10
2018-05-17T05:59:39.186Z,89.00
2018-05-17T06:02:07.448Z,88.40
2018-05-17T06:04:34.941Z,88.20
2018-05-17T06:07:02.416Z,88.50
2018-05-17T06:09:29.897Z,87.60
2018-05-17T06:11:57.379Z,87.80
2018-05-17T06:14:24.854Z,87.20
2018-05-17T06:16:53.124Z,86.50
2018-05-17T06:19:20.593Z,86.50
2018-05-17T06:21:48.838Z,85.70
2018-05-17T06:24:16.404Z,85.60
2018-05-17T06:26:44.645Z,85.20
2018-05-17T06:29:12.132Z,85.30
2018-05-17T06:31:39.701Z,85.00
2018-05-17T06:34:07.204Z,85.30
2018-05-17T06:36:34.725Z,85.90
2018-05-17T06:39:02.974Z,86.00
2018-05-17T06:41:30.538Z,85.70
2018-05-17T06:43:58.080Z,85.50
2018-05-17T06:46:26.252Z,86.10
2018-05-17T06:48:53.728Z,86.90
2018-05-17T06:51:21.211Z,85.80
2018-05-17T06:53:49.461Z,86.10
2018-05-17T06:56:16.918Z,86.00
2018-05-17T06:58:45.920Z,85.60
2018-05-17T07:01:14.970Z,85.60
2018-05-17T07:03:43.157Z,86.20
2018-05-17T07:06:10.622Z,85.40
2018-05-17T07:08:38.196Z,84.70
2018-05-17T07:11:05.761Z,85.50
2018-05-17T07:13:33.236Z,85.70
2018-05-17T07:16:01.469Z,84.60
2018-05-17T07:18:28.990Z,84.50
2018-05-17T07:20:56.423Z,84.80
2018-05-17T07:23:24.684Z,85.40
2018-05-17T07:25:52.234Z,85.40
2018-05-17T07:28:21.235Z,84.70
2018-05-17T07:30:48.808Z,84.70
2018-05-17T07:33:17.062Z,83.40
2018-05-17T07:35:44.570Z,83.30
2018-05-17T07:38:12.077Z,84.20
2018-05-17T07:40:39.557Z,84.40
2018-05-17T07:43:07.790Z,84.90
2018-05-17T07:45:35.381Z,84.70
2018-05-17T07:48:02.922Z,85.40
2018-05-17T07:50:31.166Z,86.70
2018-05-17T07:52:59.522Z,86.60
2018-05-17T07:55:26.988Z,86.30
2018-05-17T07:57:54.452Z,85.90
2018-05-17T08:00:22.045Z,86.00
2018-05-17T08:02:49.533Z,86.00
2018-05-17T08:05:17.784Z,85.50
2018-05-17T08:07:45.242Z,85.50
2018-05-17T08:10:12.728Z,86.20
2018-05-17T08:12:40.946Z,86.50
2018-05-17T08:15:08.424Z,86.50
2018-05-17T08:17:35.894Z,86.20
2018-05-17T08:20:03.374Z,84.80
2018-05-17T08:22:30.852Z,83.90
2018-05-17T08:24:58.368Z,84.50
2018-05-17T08:27:25.841Z,84.60
2018-05-17T08:29:54.083Z,83.90
2018-05-17T08:32:22.311Z,84.20
2018-05-17T08:34:49.777Z,84.20
2018-05-17T08:37:17.229Z,84.60
2018-05-17T08:39:44.752Z,83.70
2018-05-17T08:42:12.997Z,84.70
2018-05-17T08:44:40.510Z,84.70
2018-05-17T08:47:07.987Z,83.60
2018-05-17T08:49:35.515Z,83.40
2018-05-17T08:52:03.728Z,84.40
2018-05-17T08:54:31.214Z,84.30
2018-05-17T08:56:58.677Z,84.30
2018-05-17T08:59:26.238Z,83.80
2018-05-17T09:01:54.511Z,85.50
2018-05-17T09:04:21.980Z,85.50
2018-05-17T09:06:50.217Z,84.30
2018-05-17T09:09:17.708Z,84.20
2018-05-17T09:11:45.178Z,84.40
2018-05-17T09:14:13.440Z,84.00
2018-05-17T09:16:41.757Z,83.80
2018-05-17T09:19:09.230Z,83.60
2018-05-17T09:21:36.696Z,83.50
2018-05-17T09:24:04.212Z,84.10
2018-05-17T09:26:31.740Z,84.30
2018-05-17T09:28:59.206Z,84.30
2018-05-17T09:31:27.478Z,85.20
2018-05-17T09:33:55.711Z,84.60
2018-05-17T09:36:23.213Z,84.40
2018-05-17T09:38:51.527Z,84.20
2018-05-17T09:41:19.128Z,84.10
2018-05-17T09:43:47.268Z,83.60
2018-05-17T09:46:14.736Z,83.50
2018-05-17T09:48:42.232Z,82.80
2018-05-17T09:51:10.506Z,81.00
2018-05-17T09:53:38.740Z,81.10
2018-05-17T09:56:06.227Z,81.00
2018-05-17T09:58:33.717Z,81.00
2018-05-17T10:01:01.973Z,81.50
2018-05-17T10:03:30.205Z,83.80
2018-05-17T10:05:57.708Z,82.90
2018-05-17T10:08:25.984Z,81.20
2018-05-17T10:10:54.275Z,80.80
2018-05-17T10:13:22.523Z,82.80
2018-05-17T10:15:50.113Z,82.60
2018-05-17T10:18:17.647Z,82.30
2018-05-17T10:20:45.918Z,81.00
2018-05-17T10:23:14.147Z,81.20
2018-05-17T10:25:42.601Z,81.10
2018-05-17T10:28:10.091Z,79.90
2018-05-17T10:30:37.590Z,78.70
2018-05-17T10:33:05.131Z,78.50
2018-05-17T10:35:32.599Z,78.80
2018-05-17T10:38:00.079Z,77.50
2018-05-17T10:40:28.302Z,79.60
2018-05-17T10:42:55.812Z,79.60
2018-05-17T10:45:24.444Z,80.70
2018-05-17T10:47:51.933Z,80.60
2018-05-17T10:50:19.394Z,77.50
2018-05-17T10:52:47.648Z,78.20
2018-05-17T10:55:15.879Z,78.60
2018-05-17T10:57:43.356Z,77.60
2018-05-17T11:00:10.897Z,77.10
2018-05-17T11:02:38.376Z,77.10
2018-05-17T11:05:05.823Z,77.70
2018-05-17T11:07:33.278Z,77.90
2018-05-17T11:10:00.760Z,79.20
2018-05-17T11:12:28.228Z,77.80
2018-05-17T11:14:55.704Z,77.90
2018-05-17T11:17:23.935Z,77.90
2018-05-17T11:19:51.404Z,77.70
2018-05-17T11:22:18.895Z,77.00
2018-05-17T11:24:47.122Z,75.60
2018-05-17T11:27:14.615Z,75.50
2018-05-17T11:29:42.098Z,75.30
2018-05-17T11:32:10.337Z,75.40
2018-05-17T11:34:39.302Z,75.90
2018-05-17T11:37:06.792Z,75.80
2018-05-17T11:39:34.362Z,75.90
2018-05-17T11:42:01.916Z,75.80
2018-05-17T11:44:30.894Z,75.40
2018-05-17T11:46:58.366Z,75.50
2018-05-17T11:49:25.831Z,75.00
2018-05-17T11:51:54.060Z,74.70
2018-05-17T11:54:21.526Z,74.50
2018-05-17T11:56:48.992Z,74.10
2018-05-17T11:59:16.468Z,72.80
2018-05-17T12:01:43.951Z,72.70
2018-05-17T12:04:11.480Z,72.40
2018-05-17T12:06:38.942Z,72.20
2018-05-17T12:09:06.483Z,72.40
2018-05-17T12:11:34.035Z,70.10
2018-05-17T12:14:01.517Z,70.70
2018-05-17T12:16:28.984Z,68.60
2018-05-17T12:18:57.233Z,69.20
2018-05-17T12:21:24.705Z,69.10
2018-05-17T12:23:52.182Z,68.40
2018-05-17T12:26:19.661Z,69.60
2018-05-17T12:28:47.133Z,72.00
2018-05-17T12:31:14.585Z,71.50
2018-05-17T12:33:42.077Z,71.30
2018-05-17T12:36:09.586Z,70.80
2018-05-17T12:38:37.093Z,67.70
2018-05-17T12:41:04.568Z,68.90
2018-05-17T12:43:32.838Z,68.20
2018-05-17T12:46:00.374Z,68.20
2018-05-17T12:48:27.884Z,69.00
2018-05-17T12:50:55.373Z,67.30
2018-05-17T12:53:22.826Z,68.30
2018-05-17T12:55:50.290Z,67.50
2018-05-17T12:58:17.750Z,66.30
2018-05-17T13:00:45.329Z,65.90
2018-05-17T13:03:12.877Z,68.50
2018-05-17T13:05:40.451Z,67.80
2018-05-17T13:08:07.917Z,67.00
2018-05-17T13:10:36.139Z,64.90
2018-05-17T13:13:03.701Z,64.10
2018-05-17T13:15:31.187Z,64.50
2018-05-17T13:17:58.647Z,63.90
2018-05-17T13:20:26.194Z,64.60
2018-05-17T13:22:53.691Z,66.10
2018-05-17T13:25:21.934Z,63.70
2018-05-17T13:27:49.400Z,63.50
2018-05-17T13:30:17.038Z,63.70
2018-05-17T13:32:45.201Z,64.80
2018-05-17T13:35:12.667Z,64.60
2018-05-17T13:37:40.127Z,65.90
2018-05-17T13:40:07.605Z,65.60
2018-05-17T13:42:35.839Z,62.30
2018-05-17T13:45:03.354Z,62.10
2018-05-17T13:47:31.582Z,62.30
2018-05-17T13:49:59.051Z,62.30
2018-05-17T13:52:26.513Z,62.50
2018-05-17T13:54:53.988Z,63.10
2018-05-17T13:57:21.455Z,63.40
2018-05-17T13:59:49.694Z,62.80
2018-05-17T14:02:17.226Z,62.70
2018-05-17T14:04:45.497Z,65.70
2018-05-17T14:07:13.021Z,65.60
2018-05-17T14:09:41.405Z,63.10
2018-05-17T14:12:08.820Z,63.00
2018-05-17T14:14:36.282Z,64.10
2018-05-17T14:17:03.765Z,60.30
2018-05-17T14:19:32.000Z,59.50
2018-05-17T14:21:59.471Z,59.50
2018-05-17T14:24:26.936Z,59.00
2018-05-17T14:26:54.490Z,59.20
2018-05-17T14:29:21.961Z,59.10
2018-05-17T14:31:49.547Z,58.20
2018-05-17T14:34:17.022Z,58.70
2018-05-17T14:36:44.529Z,59.10
2018-05-17T14:39:12.080Z,59.10
2018-05-17T14:41:39.540Z,59.00
2018-05-17T14:44:07.100Z,59.80
2018-05-17T14:46:34.683Z,59.90
2018-05-17T14:49:02.912Z,58.80
2018-05-17T14:51:30.388Z,58.80
2018-05-17T14:53:57.854Z,58.80
2018-05-17T14:56:25.348Z,59.20
2018-05-17T14:58:52.920Z,59.20
2018-05-17T15:01:20.482Z,59.40
2018-05-17T15:03:47.881Z,60.00
2018-05-17T15:06:15.356Z,59.80
2018-05-17T15:08:43.683Z,60.00
2018-05-17T15:11:14.748Z,59.90
2018-05-17T15:13:39.332Z,59.10
2018-05-17T15:16:06.926Z,59.00
2018-05-17T15:18:35.202Z,59.20
2018-05-17T15:21:03.464Z,59.20
2018-05-17T15:23:30.949Z,59.20
2018-05-17T15:25:58.641Z,59.80
2018-05-17T15:28:26.123Z,58.00
2018-05-17T15:30:53.600Z,57.60
2018-05-17T15:33:21.072Z,57.40
2018-05-17T15:35:49.306Z,57.00
2018-05-17T15:38:16.767Z,56.90
2018-05-17T15:40:44.236Z,57.70
2018-05-17T15:43:11.730Z,57.20
2018-05-17T15:45:39.205Z,58.50
2018-05-17T15:48:06.726Z,56.60
2018-05-17T15:50:34.254Z,56.70
2018-05-17T15:53:01.739Z,56.30
2018-05-17T15:55:29.980Z,55.80
2018-05-17T15:57:57.549Z,55.80
2018-05-17T16:00:25.252Z,55.80
2018-05-17T16:02:52.757Z,54.70
2018-05-17T16:05:20.229Z,55.40
2018-05-17T16:07:47.791Z,53.90
2018-05-17T16:10:15.339Z,55.00
2018-05-17T16:12:42.799Z,55.00
2018-05-17T16:15:10.508Z,54.50
2018-05-17T16:17:38.628Z,54.00
2018-05-17T16:20:06.110Z,53.90
2018-05-17T16:22:34.362Z,54.20
2018-05-17T16:25:01.833Z,54.10
2018-05-17T16:27:29.308Z,54.80
2018-05-17T16:29:57.712Z,57.10
2018-05-17T16:32:25.250Z,57.10
2018-05-17T16:34:53.509Z,57.80
2018-05-17T16:37:21.061Z,57.80
2018-05-17T16:39:48.606Z,57.60
2018-05-17T16:42:16.172Z,58.00
2018-05-17T16:44:43.728Z,57.60
2018-05-17T16:47:11.196Z,57.30
2018-05-17T16:49:38.777Z,57.80
2018-05-17T16:52:07.026Z,58.40
2018-05-17T16:54:36.000Z,58.10
2018-05-17T16:57:03.450Z,58.10
2018-05-17T16:59:30.958Z,58.40
2018-05-17T17:01:59.197Z,59.40
2018-05-17T17:04:26.669Z,59.20
2018-05-17T17:06:55.064Z,60.70
2018-05-17T17:09:22.532Z,60.60
2018-05-17T17:11:50.008Z,60.50
2018-05-17T17:14:17.614Z,60.90
2018-05-17T17:16:45.181Z,61.20
2018-05-17T17:19:12.659Z,61.20
2018-05-17T17:21:40.904Z,61.60
2018-05-17T17:24:09.888Z,61.20
2018-05-17T17:26:37.368Z,61.10
2018-05-17T17:29:05.650Z,61.40
2018-05-17T17:31:33.894Z,61.70
2018-05-17T17:34:01.487Z,61.60
2018-05-17T17:36:29.816Z,62.00
2018-05-17T17:38:57.229Z,62.00
2018-05-17T17:41:24.710Z,62.30
2018-05-17T17:43:52.170Z,61.60
2018-05-17T17:46:19.634Z,61.90
2018-05-17T17:48:47.220Z,62.10
2018-05-17T17:51:15.395Z,62.60
2018-05-17T17:53:42.863Z,62.60
2018-05-17T17:56:10.318Z,62.50
2018-05-17T17:58:38.569Z,63.20
2018-05-17T18:01:06.147Z,62.60
2018-05-17T18:03:33.709Z,62.50
2018-05-17T18:06:01.191Z,62.00
2018-05-17T18:08:29.428Z,62.60
2018-05-17T18:10:56.894Z,62.50
2018-05-17T18:13:24.472Z,62.70
2018-05-17T18:15:52.640Z,63.50
2018-05-17T18:18:20.990Z,63.50
2018-05-17T18:20:48.461Z,62.90
2018-05-17T18:23:15.933Z,62.70
2018-05-17T18:25:44.154Z,62.40
2018-05-17T18:28:11.630Z,62.30
2018-05-17T18:30:39.094Z,62.60
2018-05-17T18:33:06.614Z,62.50
2018-05-17T18:35:34.112Z,62.90
2018-05-17T18:38:03.095Z,62.90
2018-05-17T18:40:30.662Z,62.80
2018-05-17T18:42:58.235Z,62.90
2018-05-17T18:45:25.705Z,63.00
2018-05-17T18:47:53.954Z,64.10
2018-05-17T18:50:21.513Z,63.90
2018-05-17T18:52:49.747Z,63.70
2018-05-17T18:55:22.914Z,64.40
2018-05-17T18:57:44.724Z,64.20
2018-05-17T19:00:13.007Z,64.40
2018-05-17T19:02:40.583Z,64.40
2018-05-17T19:05:08.007Z,65.20
2018-05-17T19:07:35.552Z,65.10
2018-05-17T19:12:38.554Z,65.90
2018-05-17T19:15:06.038Z,65.80
2018-05-17T19:17:34.266Z,65.90
2018-05-17T19:20:01.749Z,66.00
2018-05-17T19:22:29.209Z,65.90
2018-05-17T19:24:56.714Z,66.00
2018-05-17T19:27:24.203Z,65.90
2018-05-17T19:29:51.796Z,66.00
2018-05-17T19:32:20.041Z,66.50
2018-05-17T19:34:47.514Z,66.30
2018-05-17T19:37:15.060Z,66.20
2018-05-17T19:39:43.245Z,66.10
2018-05-17T19:42:10.805Z,66.10
2018-05-17T19:44:38.276Z,66.50
2018-05-17T19:47:06.521Z,66.50
2018-05-17T19:49:34.004Z,66.40
2018-05-17T19:52:01.473Z,66.10
2018-05-17T19:54:29.713Z,66.10
2018-05-17T19:56:57.175Z,65.90
2018-05-17T19:59:24.684Z,65.50
2018-05-17T20:01:52.910Z,66.10
2018-05-17T20:04:20.504Z,65.10
2018-05-17T20:06:48.050Z,65.20
2018-05-17T20:09:16.275Z,65.30
2018-05-17T20:11:43.815Z,65.20
2018-05-17T20:14:11.338Z,65.40
2018-05-17T20:16:39.574Z,65.60
2018-05-17T20:19:07.042Z,65.50
2018-05-17T20:21:36.017Z,66.10
2018-05-17T20:24:03.519Z,66.10
2018-05-17T20:26:31.774Z,66.70
2018-05-17T20:28:59.247Z,66.60
2018-05-17T20:31:27.562Z,67.50
2018-05-17T20:33:55.048Z,67.40
2018-05-17T20:36:22.500Z,67.90
2018-05-17T20:38:49.986Z,68.20
2018-05-17T20:41:17.442Z,68.10
2018-05-17T20:43:44.914Z,68.40
2018-05-17T20:46:13.178Z,69.30
2018-05-17T20:48:40.647Z,69.10
2018-05-17T20:51:08.916Z,69.90
2018-05-17T20:53:37.263Z,70.40
2018-05-17T20:56:04.733Z,70.40
2018-05-17T20:58:32.260Z,71.00
2018-05-17T21:00:59.732Z,71.30
2018-05-17T21:03:27.215Z,71.40
2018-05-17T21:05:55.488Z,72.70
2018-05-17T21:08:23.024Z,73.40
2018-05-17T21:10:50.488Z,73.50
2018-05-17T21:13:18.053Z,73.40
2018-05-17T21:15:45.550Z,74.40
2018-05-17T21:18:13.126Z,74.30
2018-05-17T21:20:40.623Z,74.80
2018-05-17T21:23:08.200Z,75.10
2018-05-17T21:25:35.761Z,75.50
2018-05-17T21:28:04.012Z,75.80
2018-05-17T21:30:31.497Z,75.60
2018-05-17T21:32:59.745Z,76.60
2018-05-17T21:35:28.725Z,76.80
2018-05-17T21:37:56.216Z,76.90
2018-05-17T21:40:23.776Z,77.00
2018-05-17T21:42:52.010Z,77.60
2018-05-17T21:45:19.608Z,77.40
2018-05-17T21:47:47.884Z,78.60
2018-05-17T21:50:15.431Z,78.60
2018-05-17T21:52:42.900Z,78.90
2018-05-17T21:55:11.146Z,79.80
2018-05-17T21:57:38.649Z,79.70
2018-05-17T22:00:06.909Z,80.70
2018-05-17T22:02:35.134Z,81.00
2018-05-17T22:05:02.617Z,80.80
2018-05-17T22:07:30.116Z,81.30
2018-05-17T22:09:58.419Z,81.20
2018-05-17T22:12:25.906Z,81.20
2018-05-17T22:14:53.371Z,81.50
2018-05-17T22:17:20.844Z,81.80
2018-05-17T22:19:48.307Z,82.10
2018-05-17T22:22:15.846Z,82.30
2018-05-17T22:24:43.406Z,82.60
2018-05-17T22:27:10.880Z,82.80
2018-05-17T22:29:39.117Z,82.60
2018-05-17T22:32:06.585Z,82.60
2018-05-17T22:34:34.160Z,82.80
2018-05-17T22:37:02.405Z,83.30
2018-05-17T22:39:29.876Z,83.20
2018-05-17T22:41:57.352Z,83.70
2018-05-17T22:44:25.618Z,85.10
2018-05-17T22:46:53.088Z,84.00
2018-05-17T22:49:22.089Z,84.10
2018-05-17T22:51:50.348Z,84.00
2018-05-17T22:54:17.812Z,83.80
2018-05-17T22:56:58.086Z,83.80
2018-05-17T22:59:26.339Z,84.00
2018-05-17T23:01:53.811Z,83.90
2018-05-17T23:04:22.087Z,83.90
2018-05-17T23:06:50.332Z,83.70
2018-05-17T23:09:17.854Z,83.70
2018-05-17T23:11:45.323Z,84.20
2018-05-17T23:14:12.824Z,84.60
2018-05-17T23:16:41.071Z,85.90
2018-05-17T23:19:08.546Z,84.90
2018-05-17T23:21:36.019Z,85.10
2018-05-17T23:24:04.280Z,85.10
2018-05-17T23:26:31.755Z,85.10
2018-05-17T23:29:00.011Z,85.60
2018-05-17T23:31:27.589Z,85.60
2018-05-17T23:33:55.852Z,86.00
2018-05-17T23:36:23.328Z,85.80
2018-05-17T23:38:50.848Z,86.00
2018-05-17T23:41:30.333Z,85.80
2018-05-17T23:43:57.869Z,86.40
2018-05-17T23:46:26.135Z,86.20
2018-05-17T23:48:53.600Z,86.20
2018-05-17T23:51:21.879Z,87.30
2018-05-17T23:53:50.107Z,87.30
2018-05-17T23:56:17.583Z,87.20
2018-05-17T23:58:45.068Z,86.80
